Date,TemperatureHighF,TemperatureAvgF,TemperatureLowF,DewpointHighF,DewpointAvgF,DewpointLowF,HumidityHigh,HumidityAvg,HumidityLow,PressureMaxIn,PressureMinIn,WindSpeedMaxMPH,WindSpeedAvgMPH,GustSpeedMaxMPH,PrecipitationSumIn
2013-1-2,23,21,19,17,14,12,92,88,85,30.06,29.96,6,4,0,0.00
2013-1-3,23,16,13,17,9,3,92,80,61,30.26,30.07,13,9,0,0.00
2013-1-4,32,24,16,17,14,12,85,71,54,30.12,30.01,11,6,17,0.00
2013-1-5,28,20,14,15,12,8,92,78,62,30.09,29.86,10,6,0,0.00
2013-1-6,26,19,13,15,10,5,92,75,53,30.21,30.00,11,6,0,0.00
2013-1-7,37,30,18,24,21,10,86,74,64,30.03,29.89,16,8,23,0.00
2013-1-8,35,30,24,28,22,0,100,83,74,29.98,29.76,13,7,18,0.00
2013-1-9,34,32,28,26,22,19,86,70,55,30.35,29.91,24,11,29,0.00
2013-1-10,42,35,28,33,24,19,100,74,51,30.31,29.74,18,10,21,0.00
2013-1-11,42,38,34,41,36,35,100,100,100,29.74,29.36,14,8,18,0.00
2013-1-12,40,18,5,37,9,-2,93,72,61,30.07,29.38,23,14,36,0.00
2013-1-13,11,7,3,1,-1,-2,84,75,71,30.23,30.04,12,8,0,0.00
2013-1-14,14,11,8,3,1,0,84,73,61,30.40,30.24,12,6,0,0.00
2013-1-15,30,22,12,17,11,5,85,69,50,30.28,29.87,14,7,23,0.00
2013-1-16,37,28,14,32,18,0,100,72,44,30.19,29.66,18,12,24,0.00
2013-1-17,21,15,10,10,2,-5,72,60,46,30.39,30.22,13,6,0,0.00
2013-1-18,42,31,19,28,22,10,92,76,60,30.29,29.72,16,9,21,0.00
2013-1-19,40,26,3,30,18,-5,92,77,56,30.20,29.68,34,13,48,0.00
2013-1-20,11,3,-1,0,-6,-9,71,65,46,30.40,30.21,18,11,25,0.00
2013-1-21,-2,-6,-10,-11,-14,-20,76,64,53,30.34,30.26,17,12,24,0.00
2013-1-22,8,-2,-11,-5,-12,-18,76,63,53,30.40,30.24,12,5,0,0.00
2013-1-23,17,8,-5,8,-3,-16,92,62,45,30.58,30.14,23,10,33,0.00
2013-1-24,15,4,-6,0,-9,-16,65,57,50,30.68,30.20,16,8,20,0.00
2013-1-25,20,14,6,10,4,-2,78,61,41,30.28,29.94,23,12,32,0.00
2013-1-26,26,15,4,10,3,-2,84,64,52,30.34,30.12,14,6,0,0.00
2013-1-27,35,30,25,32,22,10,100,77,54,30.12,29.80,12,8,0,0.00
2013-1-28,38,34,32,32,31,30,100,100,100,29.89,29.65,11,5,0,0.00
2013-1-29,36,33,28,32,28,23,100,93,86,29.71,29.52,18,9,26,0.00
2013-1-30,28,18,9,21,11,3,92,79,67,29.73,29.63,23,17,31,0.00
2013-1-31,9,3,-6,1,-5,-14,91,72,64,30.26,29.75,20,15,28,0.00
2013-2-1,7,-1,-9,1,-11,-18,91,75,58,30.31,30.05,12,6,0,0.00
2013-2-2,14,8,1,6,0,-5,92,79,65,30.18,29.97,9,4,0,0.00
2013-2-3,18,12,5,10,4,0,92,80,61,30.08,29.96,12,6,0,0.00
2013-2-4,20,13,5,10,2,-2,92,71,56,30.07,29.78,11,5,0,0.00
2013-2-5,29,24,16,24,16,8,100,84,62,30.08,29.65,16,8,20,0.00
2013-2-6,28,19,8,19,12,0,100,89,85,30.10,29.93,12,6,0,0.00
2013-2-7,28,26,24,23,21,19,100,92,79,30.24,29.97,16,10,23,0.00
2013-2-8,68,25,18,33,15,12,100,81,28,30.38,29.44,12,7,18,0.00
2013-2-9,34,30,26,28,24,21,100,97,92,30.22,29.95,19,13,28,0.00
2013-2-10,35,31,29,32,27,24,100,92,80,29.93,29.26,17,11,24,0.00
2013-2-11,30,26,20,28,20,12,92,79,67,30.03,29.32,21,16,29,0.00
2013-2-12,36,26,18,23,18,12,85,72,55,30.03,29.82,11,7,17,0.00
2013-2-13,42,32,24,33,23,0,100,79,60,29.80,29.55,11,4,0,0.00
2013-2-14,31,26,17,33,19,3,100,73,38,30.16,29.56,20,10,29,0.00
2013-2-15,18,12,7,5,2,0,77,63,48,30.29,30.17,17,10,20,0.00
2013-2-16,20,12,6,6,2,-2,91,71,48,30.25,30.12,6,3,0,0.00
2013-2-17,34,23,13,21,13,3,78,71,63,30.11,29.69,20,11,28,0.00
2013-2-18,36,25,10,30,18,3,86,76,67,29.77,29.52,20,12,29,0.00
2013-2-19,9,6,3,3,-3,-7,78,65,50,30.33,29.79,25,16,33,0.00
2013-2-20,18,8,-1,3,-2,-7,77,62,48,30.45,30.35,10,3,18,0.00
2013-2-21,24,17,7,10,5,1,72,63,53,30.44,30.10,13,7,23,0.00
2013-2-22,31,25,20,21,18,12,92,81,63,30.08,29.85,13,7,0,0.00
2013-2-23,35,28,22,21,19,17,92,83,68,29.95,29.84,8,5,0,0.00
2013-2-24,39,28,17,19,15,10,92,72,55,30.09,29.96,6,2,0,0.00
2013-2-25,38,32,27,24,22,19,86,71,59,30.10,30.03,6,1,0,0.00
2013-2-26,37,29,20,26,22,0,92,76,69,30.05,29.87,14,8,20,0.00
2013-2-27,39,32,29,26,24,23,80,74,60,30.01,29.86,23,13,28,0.00
2013-2-28,30,29,24,21,19,0,74,66,63,30.21,30.02,14,10,21,0.00
2013-3-1,30,25,18,17,15,12,73,64,54,30.34,30.22,12,9,23,0.00
2013-3-2,31,22,11,12,8,5,92,61,33,30.35,30.18,6,3,0,0.00
2013-3-3,34,28,21,12,10,0,72,50,39,30.17,29.98,14,8,21,0.00
2013-3-4,30,27,24,24,17,10,100,71,46,30.03,29.94,17,12,0,0.00
2013-3-5,32,27,22,24,22,17,100,87,68,30.28,29.97,14,9,25,0.00
2013-3-6,29,24,19,19,16,0,85,73,63,30.41,30.30,11,6,0,0.00
2013-3-7,34,25,16,17,14,8,92,73,58,30.38,30.28,12,5,0,0.00
2013-3-8,40,31,22,28,22,15,92,76,68,30.32,30.11,13,7,0,0.00
2013-3-9,38,36,33,35,34,28,100,93,74,30.08,29.71,12,7,0,0.00
2013-3-10,35,33,30,35,29,24,100,82,74,29.93,29.78,20,15,27,0.00
2013-3-11,32,28,25,24,22,17,86,76,63,29.87,29.74,18,11,24,0.00
2013-3-12,30,26,23,17,15,10,79,65,46,30.15,29.83,20,12,27,0.00
2013-3-13,33,24,14,17,12,10,85,63,42,30.38,30.15,11,7,0,0.00
2013-3-14,43,33,25,26,22,0,92,70,60,30.26,30.02,13,5,0,0.00
2013-3-15,35,32,23,30,28,24,92,83,74,30.02,29.82,13,7,19,0.00
2013-3-16,25,20,14,23,13,5,86,69,49,30.22,29.89,14,11,19,0.00
2013-3-17,30,20,8,15,6,0,66,56,45,30.26,29.90,17,12,0,0.00
2013-3-18,31,24,13,28,16,0,100,75,67,29.88,29.60,25,17,33,0.00
2013-3-19,24,14,8,6,2,0,78,60,44,30.18,29.80,24,16,31,0.00
2013-3-20,21,13,6,3,0,-4,66,56,44,30.21,30.11,23,14,28,0.00
2013-3-21,28,18,8,10,5,0,77,58,42,30.13,30.03,8,3,0,0.00
2013-3-22,37,26,14,17,10,6,72,56,37,30.09,30.03,10,3,0,0.00
2013-3-23,42,31,21,19,16,14,79,58,37,30.14,30.07,10,3,0,0.00
2013-3-24,33,30,29,24,21,17,80,70,59,30.11,29.98,14,8,20,0.00
2013-3-25,38,31,23,21,18,0,73,58,47,30.21,30.03,16,10,20,0.00
2013-3-26,42,34,27,21,20,19,74,61,47,30.29,30.21,10,5,0,0.00
2013-3-27,45,37,28,21,18,15,85,58,33,30.34,30.29,5,2,0,0.00
2013-3-28,46,37,28,26,21,0,79,59,41,30.35,30.28,9,3,0,0.00
2013-3-29,51,42,35,35,29,23,80,67,53,30.29,30.10,11,6,0,0.00
2013-3-30,54,45,38,42,36,0,93,73,54,30.08,29.84,13,8,16,0.00
2013-3-31,42,35,24,33,23,10,100,64,32,30.07,29.80,25,14,36,0.00
2013-4-1,34,27,18,17,12,8,73,55,34,30.25,30.07,17,12,25,0.00
2013-4-2,36,29,20,15,13,10,85,55,32,30.35,30.25,14,8,20,0.00
2013-4-3,48,37,25,30,19,0,73,53,37,30.40,30.09,17,8,24,0.00
2013-4-4,48,43,40,33,29,26,75,57,37,30.08,30.00,17,12,29,0.00
2013-4-5,49,38,32,33,26,15,100,70,35,30.24,29.94,18,12,23,0.00
2013-4-6,55,42,36,42,34,26,93,73,52,29.94,29.50,19,13,28,0.00
2013-4-7,50,42,35,39,32,0,86,72,61,29.94,29.73,13,6,0,0.00
2013-4-8,47,42,40,42,40,37,100,87,75,30.03,29.68,14,7,21,0.00
2013-4-9,44,38,33,37,32,26,93,78,56,30.17,29.99,26,15,33,0.00
2013-4-10,40,36,30,30,25,21,100,67,51,30.20,29.91,24,13,33,0.00
2013-4-11,37,33,30,33,30,24,100,85,64,29.94,29.68,17,12,28,0.00
2013-4-12,39,32,27,30,27,26,100,85,69,29.83,29.67,12,8,19,0.00
2013-4-13,39,34,29,28,25,23,100,75,59,29.96,29.83,11,6,0,0.00
2013-4-14,36,33,30,35,28,23,100,82,64,29.96,29.49,20,14,31,0.00
2013-4-15,42,37,33,35,27,0,93,69,64,29.95,29.53,21,13,34,0.00
2013-4-16,48,39,33,28,26,24,74,61,45,30.32,29.95,13,8,19,0.00
2013-4-17,43,39,33,37,30,26,100,71,60,30.31,29.91,23,10,27,0.00
2013-4-18,34,32,30,33,30,0,100,88,86,29.92,29.50,23,14,31,0.00
2013-4-19,38,32,29,30,24,0,100,72,51,29.96,29.47,24,16,35,0.00
2013-4-20,45,33,23,17,12,0,79,46,25,30.30,29.99,8,3,0,0.00
2013-4-21,50,41,34,46,35,15,100,81,47,30.31,30.02,20,13,29,0.00
2013-4-22,44,37,31,37,33,28,100,84,56,30.21,30.11,17,11,23,0.00
2013-4-23,45,34,28,32,25,19,93,69,41,30.15,30.06,17,11,27,0.00
2013-4-24,54,40,30,35,26,21,93,67,37,30.08,29.90,21,9,32,0.00
2013-4-25,58,43,33,33,28,23,93,61,32,30.20,29.97,13,9,0,0.00
2013-4-26,76,58,44,42,36,0,70,45,26,30.13,29.98,18,9,24,0.00
2013-4-27,78,62,48,48,38,33,75,45,25,30.14,29.92,13,4,17,0.00
2013-4-28,80,66,53,53,46,44,77,52,28,29.92,29.64,23,11,31,0.00
2013-4-29,78,63,50,57,46,33,93,58,33,29.82,29.58,11,6,16,0.00
2013-4-30,75,66,58,57,45,26,77,51,23,29.93,29.42,23,13,31,0.00
2013-5-1,57,41,33,39,34,28,93,76,43,30.46,29.97,18,10,23,0.00
2013-5-2,47,40,36,33,27,24,93,61,42,30.54,30.43,18,12,23,0.00
2013-5-3,37,34,31,33,29,24,93,81,55,30.42,30.16,18,13,29,0.00
2013-5-4,49,39,32,41,36,30,100,86,70,30.17,30.11,12,10,19,0.00
2013-5-5,70,51,38,46,40,35,93,68,48,30.18,30.07,11,6,19,0.00
2013-5-6,75,62,46,46,44,42,87,57,35,30.12,30.01,8,2,0,0.00
2013-5-7,83,69,56,51,45,39,82,49,27,30.07,29.96,9,3,19,0.00
2013-5-8,80,67,56,57,50,44,87,57,33,30.01,29.94,11,4,20,0.00
2013-5-9,60,52,43,55,48,28,93,80,49,30.10,29.96,19,11,29,0.00
2013-5-10,72,52,35,30,25,0,74,39,16,30.12,29.90,11,6,17,0.00
2013-5-11,59,47,41,44,26,19,66,42,27,30.17,29.88,29,18,40,0.00
2013-5-12,61,47,36,24,20,15,60,36,19,30.23,30.09,16,8,26,0.00
2013-5-13,75,59,43,46,32,17,56,40,25,30.11,29.66,21,8,27,0.00
2013-5-14,97,76,57,51,45,28,81,39,13,29.68,29.45,23,9,31,0.00
2013-5-15,83,68,57,46,45,39,62,44,27,29.92,29.64,21,10,27,0.00
2013-5-16,87,72,58,48,41,0,62,36,19,29.92,29.83,19,7,26,0.00
2013-5-17,68,60,55,55,49,0,93,72,22,30.00,29.90,21,13,21,0.00
2013-5-18,84,66,54,64,59,53,100,81,54,30.02,29.80,16,9,23,0.00
2013-5-19,84,69,63,66,63,62,93,81,54,29.81,29.57,18,9,31,0.00
2013-5-20,75,67,58,64,58,0,100,77,56,29.58,29.51,16,9,25,0.00
2013-5-21,64,56,46,59,55,50,100,90,82,29.71,29.53,11,7,25,0.00
2013-5-22,53,48,44,50,47,44,100,89,71,29.97,29.70,20,11,31,0.00
2013-5-23,70,53,43,42,34,28,81,49,27,30.34,29.97,16,11,29,0.00
2013-5-24,71,58,44,51,37,26,82,50,34,30.39,30.18,13,8,20,0.00
2013-5-25,65,58,52,51,47,44,87,70,55,30.26,30.23,17,12,25,0.00
2013-5-26,61,57,53,48,41,37,67,58,47,30.24,30.08,23,14,35,0.00
2013-5-27,62,58,54,55,50,46,93,78,63,30.06,29.84,19,11,25,0.00
2013-5-28,61,57,54,55,54,51,100,89,82,29.87,29.73,14,5,0,0.00
2013-5-29,82,67,56,69,61,53,100,86,73,29.83,29.65,16,8,20,0.00
2013-5-30,80,70,63,64,62,60,100,78,57,29.71,29.53,20,12,34,0.00
2013-5-31,80,69,61,62,55,0,93,66,36,29.57,29.51,25,12,34,0.00
2013-6-1,74,62,51,60,51,0,88,70,53,29.92,0.00,21,8,28,0.00
2013-6-2,72,57,48,44,40,39,71,52,37,30.08,29.92,16,9,27,0.00
2013-6-3,73,63,51,46,42,37,76,51,30,30.07,29.94,16,4,0,0.00
2013-6-4,68,61,54,53,49,44,87,65,52,30.09,30.00,17,12,24,0.00
2013-6-5,60,56,54,57,54,48,100,93,76,30.09,29.95,13,6,0,0.00
2013-6-6,57,53,49,53,51,50,100,90,82,30.04,29.97,11,8,25,0.00
2013-6-7,68,58,52,53,51,50,93,77,55,30.06,29.94,6,3,0,0.00
2013-6-8,75,66,57,55,52,51,87,67,49,29.94,29.89,12,6,0,0.00
2013-6-9,74,60,55,60,57,53,93,86,67,29.91,29.77,19,12,27,0.00
2013-6-10,87,68,59,62,60,59,100,81,57,29.86,29.80,6,2,0,0.00
2013-6-11,79,69,60,66,62,57,93,79,61,29.91,29.82,9,3,21,0.00
2013-6-12,77,67,59,66,60,0,100,79,52,29.89,29.77,18,8,28,0.00
2013-6-13,82,70,57,55,52,48,72,53,41,30.10,29.89,16,8,19,0.00
2013-6-14,82,72,61,60,56,50,77,61,47,30.09,29.88,19,11,25,0.00
2013-6-15,81,71,62,68,63,60,93,78,60,29.92,29.85,14,5,24,0.00
2013-6-16,89,73,59,62,54,44,93,58,25,29.93,29.85,20,5,31,0.00
2013-6-17,84,73,64,57,55,53,82,57,39,30.01,29.87,13,7,21,0.00
2013-6-18,83,68,55,59,54,50,77,65,49,30.10,30.02,11,7,20,0.00
2013-6-19,93,76,62,60,57,55,77,59,37,30.07,29.95,11,7,16,0.00
2013-6-20,96,82,70,64,61,59,69,54,35,30.01,29.90,19,10,26,0.00
2013-6-21,83,73,62,69,64,62,100,76,51,30.04,29.75,31,10,55,0.00
2013-6-22,86,73,65,69,65,0,100,79,65,30.01,29.85,21,6,26,0.00
2013-6-23,90,76,68,69,66,62,94,74,54,29.88,29.71,18,12,32,0.00
2013-6-24,87,76,67,69,65,64,93,76,61,29.91,29.82,20,4,26,0.00
2013-6-25,94,78,65,73,67,62,93,76,61,29.85,29.72,12,7,20,0.00
2013-6-26,93,82,74,73,70,64,94,75,48,29.81,29.68,19,8,21,0.00
2013-6-27,89,80,72,66,60,53,73,53,31,29.82,29.79,26,10,33,0.00
2013-6-28,79,72,65,64,58,0,88,63,50,29.81,29.76,21,14,35,0.00
2013-6-29,80,69,60,62,57,48,100,68,38,29.98,29.76,18,12,26,0.00
2013-6-30,87,71,57,55,51,44,82,52,31,30.11,29.98,14,7,27,0.00
2013-7-1,87,76,63,60,52,0,82,49,32,30.19,30.11,13,5,19,0.00
2013-7-2,87,74,61,53,51,48,67,48,34,30.17,30.06,11,6,17,0.00
2013-7-3,86,76,62,57,52,44,82,49,26,30.08,29.96,10,3,0,0.00
2013-7-4,94,79,66,60,55,51,72,47,27,29.98,29.87,18,8,24,0.00
2013-7-5,94,82,71,62,59,57,56,47,35,29.91,29.82,18,12,27,0.00
2013-7-6,99,82,75,66,61,60,61,53,40,29.89,29.81,14,10,19,0.00
2013-7-7,96,84,72,71,66,62,83,57,43,29.87,29.83,14,6,25,0.00
2013-7-8,92,75,64,69,66,64,94,74,46,30.00,29.87,9,6,21,0.00
2013-7-9,92,80,69,71,67,0,94,70,55,29.98,29.76,23,12,33,0.00
2013-7-10,84,73,62,64,55,50,77,54,36,30.05,29.90,17,11,26,0.00
2013-7-11,93,77,64,60,56,50,88,55,28,30.12,29.99,14,5,20,0.00
2013-7-12,93,80,69,60,58,55,72,49,35,30.03,29.92,23,13,29,0.00
2013-7-13,82,74,65,69,63,57,100,69,47,30.06,29.96,17,10,27,0.00
2013-7-14,90,78,70,66,63,60,78,63,45,30.18,30.06,10,7,16,0.00
2013-7-15,100,82,70,69,65,62,83,63,43,30.25,30.17,10,6,0,0.00
2013-7-16,99,87,76,71,70,66,88,63,43,30.22,30.18,12,8,18,0.00
2013-7-17,100,88,77,71,69,66,78,59,41,30.26,30.13,14,7,20,0.00
2013-7-18,98,88,79,71,66,0,74,54,41,30.13,29.78,21,11,31,0.00
2013-7-19,86,82,77,71,62,0,74,54,37,29.89,29.73,16,11,25,0.00
2013-7-20,84,74,67,62,60,55,88,63,44,29.96,29.88,11,6,25,0.00
2013-7-21,85,71,57,68,59,0,93,68,55,29.97,29.81,12,8,0,0.00
2013-7-22,88,76,67,69,64,55,93,69,42,29.83,29.68,20,11,26,0.00
2013-7-23,80,68,61,55,52,51,77,57,44,30.02,29.83,14,8,21,0.00
2013-7-24,87,70,62,60,54,51,73,61,50,30.09,29.98,8,4,0,0.00
2013-7-25,84,76,65,66,60,53,88,62,37,29.99,29.91,16,6,20,0.00
2013-7-26,75,65,56,64,54,0,88,67,53,30.08,29.91,21,13,31,0.00
2013-7-27,62,56,52,51,47,44,82,68,48,30.08,29.94,21,11,33,0.00
2013-7-28,77,61,51,53,48,44,76,62,43,30.06,29.97,13,8,19,0.00
2013-7-29,83,68,57,55,53,51,87,65,39,30.14,30.06,10,4,17,0.00
2013-7-30,74,68,62,64,60,55,88,76,60,30.11,30.07,8,4,0,0.00
2013-7-31,82,71,64,64,59,48,93,71,38,30.08,29.99,20,6,24,0.00
2013-8-1,87,72,59,57,52,48,82,53,32,30.04,29.87,10,3,0,0.00
2013-8-2,79,71,61,60,52,46,82,53,31,30.04,29.86,13,7,19,0.00
2013-8-3,79,68,56,53,50,46,87,54,33,30.18,30.04,12,4,16,0.00
2013-8-4,81,68,57,55,52,48,82,62,46,30.24,30.06,6,4,0,0.00
2013-8-5,88,70,60,66,60,0,93,74,61,30.06,29.80,9,5,0,0.00
2013-8-6,87,70,61,64,60,55,93,74,48,29.85,29.70,16,5,41,0.00
2013-8-7,78,67,61,62,54,48,100,65,38,30.03,29.77,14,8,21,0.00
2013-8-8,79,69,61,60,55,48,82,66,49,30.06,29.99,9,3,0,0.00
2013-8-9,77,68,60,60,55,50,93,65,43,30.12,30.00,16,7,21,0.00
2013-8-10,82,69,60,55,52,48,72,55,40,30.19,30.10,9,4,0,0.00
2013-8-11,81,72,65,64,60,53,88,71,56,30.10,30.00,6,3,0,0.00
2013-8-12,80,71,62,64,56,51,93,61,36,30.06,30.00,16,8,19,0.00
2013-8-13,77,67,57,55,48,41,87,54,33,30.20,30.06,11,5,18,0.00
2013-8-14,76,71,59,53,50,46,87,49,37,30.20,29.21,18,5,18,0.00
2013-8-15,78,69,59,57,54,50,79,59,43,29.26,29.19,15,3,15,0.00
2013-8-16,80,72,62,58,54,50,81,56,38,29.31,29.25,16,3,16,0.00
2013-8-17,83,72,61,57,55,51,81,56,35,29.33,29.22,17,2,17,0.00
2013-8-18,83,74,64,60,56,53,76,56,39,29.27,29.13,22,2,22,0.00
2013-8-19,88,77,69,68,63,57,74,63,47,29.15,29.02,16,2,16,0.00
2013-8-20,92,81,72,72,68,65,82,68,51,29.05,28.98,16,2,16,0.00
2013-8-21,86,80,74,74,70,61,86,72,51,29.13,28.96,13,3,13,0.00
2013-8-22,86,77,67,62,51,47,63,43,28,29.26,29.12,18,4,18,0.00
2013-8-23,89,76,64,67,57,47,77,54,42,29.27,29.15,16,3,16,0.00
2013-8-24,91,80,71,72,68,63,81,69,52,29.20,29.06,14,3,21,0.00
2013-8-25,95,86,79,74,71,69,75,63,48,29.14,29.06,22,3,22,0.00
2013-8-26,97,87,79,75,73,71,83,66,47,29.12,28.97,17,4,17,0.00
2013-8-27,94,84,78,76,73,70,80,69,53,29.05,28.92,16,3,16,0.00
2013-8-28,91,81,72,72,69,64,93,70,42,29.14,29.04,13,3,13,0.00
2013-8-29,94,82,73,76,71,66,95,72,44,29.13,28.97,14,3,14,0.44
2013-8-30,83,77,71,72,66,61,87,70,53,29.07,28.95,19,5,19,0.00
2013-8-31,91,76,66,67,64,61,89,70,44,29.03,28.83,28,3,28,0.08
2013-9-1,74,68,62,64,58,52,84,71,62,29.11,28.85,22,7,22,0.00
2013-9-2,67,60,55,53,50,49,86,71,56,29.23,29.10,17,4,17,0.00
2013-9-3,76,65,54,58,54,50,90,70,47,29.23,29.12,13,3,13,0.00
2013-9-4,86,73,62,63,60,56,87,66,45,29.28,29.13,13,2,13,0.00
2013-9-5,84,72,62,66,58,51,81,63,45,29.35,29.23,14,4,14,0.00
2013-9-6,91,80,70,69,65,59,92,66,38,29.23,29.00,22,3,22,0.00
2013-9-7,91,81,71,69,66,60,83,62,41,29.15,28.98,17,4,17,0.00
2013-9-8,75,70,65,65,59,53,82,70,60,29.18,29.02,18,5,18,0.00
2013-9-9,92,78,69,73,68,64,92,74,48,29.02,28.76,19,5,19,0.00
2013-9-10,80,74,70,72,64,59,86,72,57,29.11,28.88,18,5,18,0.00
2013-9-11,83,74,66,62,56,47,85,55,30,29.18,29.11,22,5,22,0.00
2013-9-12,71,64,56,53,48,42,82,57,37,29.35,29.18,23,7,23,0.00
2013-9-13,71,60,50,47,45,41,83,59,37,29.41,29.21,9,3,10,0.00
2013-9-14,72,61,53,56,48,44,94,65,41,29.22,29.02,12,2,12,0.11
2013-9-15,63,58,51,56,52,44,97,81,68,29.44,29.02,12,4,12,0.00
2013-9-16,67,55,44,45,41,33,89,63,31,29.53,29.37,13,4,13,0.00
2013-9-17,68,58,50,57,50,41,96,76,61,29.37,29.07,14,4,18,0.02
2013-9-18,73,66,59,70,64,57,99,94,86,29.08,28.83,12,4,12,0.14
2013-9-19,77,71,66,72,67,58,96,87,73,28.93,28.78,34,5,34,0.34
2013-9-20,65,58,52,58,52,46,89,80,55,29.06,28.91,20,7,20,0.03
2013-9-21,63,54,48,49,46,44,92,76,54,29.12,29.03,13,4,13,0.00
2013-9-22,72,60,49,55,50,43,86,71,55,29.11,28.98,20,6,20,0.00
2013-9-23,74,63,54,54,52,48,84,67,46,29.09,29.00,18,5,18,0.00
2013-9-24,76,64,54,54,51,48,84,66,41,29.11,29.04,15,4,15,0.00
2013-9-25,74,64,55,54,52,49,88,67,49,29.11,29.00,16,4,16,0.00
2013-9-26,82,68,56,61,56,50,82,67,48,29.07,28.96,18,6,18,0.00
2013-9-27,84,71,66,65,61,59,79,71,47,29.06,28.93,20,4,20,0.00
2013-9-28,73,65,52,62,56,45,92,72,63,29.06,28.78,24,4,24,0.06
2013-9-29,77,60,48,49,46,43,85,62,32,29.09,28.92,13,2,13,0.00
2013-9-30,81,67,59,54,50,46,68,54,37,28.93,28.73,11,3,11,0.00
2013-10-1,74,68,59,53,43,31,64,42,21,29.11,28.72,22,6,22,0.00
2013-10-2,75,62,51,56,44,37,94,56,27,29.18,28.97,26,4,26,0.91
2013-10-3,59,58,57,56,56,55,96,94,92,29.00,28.93,16,6,16,0.00
2013-10-4,57,57,57,55,55,55,93,93,93,29.06,29.06,9,7,9,0.00
2013-10-7,58,58,58,41,41,41,55,55,55,29.11,29.11,3,3,3,0.00
2013-10-8,77,68,51,49,46,41,75,48,33,29.10,28.95,15,3,15,0.00
2013-10-9,77,67,59,53,50,47,69,55,38,29.18,29.05,17,3,17,0.00
2013-10-10,79,64,54,54,49,45,73,59,37,29.17,29.01,19,5,19,0.00
2013-10-11,74,66,58,59,54,50,87,67,52,29.02,28.75,29,6,31,0.10
2013-10-12,61,52,49,56,43,39,86,73,61,29.28,28.83,34,7,34,0.01
2013-10-13,60,50,40,40,36,32,87,61,35,29.54,29.28,16,3,16,0.00
2013-10-14,54,50,45,47,38,35,91,65,51,29.52,29.09,23,5,23,0.43
2013-10-15,54,50,46,53,48,45,98,95,91,29.10,28.80,24,6,24,0.91
2013-10-16,54,47,43,45,40,35,98,79,51,29.08,28.93,21,5,22,0.02
2013-10-17,57,47,42,46,39,36,95,76,48,29.00,28.89,19,4,19,0.35
2013-10-18,51,44,39,41,35,28,95,71,41,29.10,28.95,22,6,22,0.10
2013-10-19,45,40,37,39,36,32,91,83,72,28.95,28.80,16,4,17,0.11
2013-10-20,45,37,34,39,35,31,95,89,80,28.97,28.73,22,4,22,0.13
2013-10-21,38,35,33,33,25,21,84,64,55,29.06,28.97,24,7,25,0.00
2013-10-22,40,35,29,32,29,24,90,79,65,29.13,29.04,16,4,16,0.00
2013-10-23,37,35,33,32,26,21,89,70,55,29.20,29.09,19,6,20,0.00
2013-10-24,41,37,33,32,27,23,80,65,55,29.40,29.19,22,5,22,0.00
2013-10-25,58,45,31,42,34,26,89,66,51,29.41,28.90,24,5,24,0.00
2013-10-26,53,43,36,41,30,28,74,60,50,29.21,28.89,26,8,27,0.00
2013-10-27,56,43,32,33,30,28,82,61,41,29.24,28.94,21,4,21,0.00
2013-10-28,43,37,32,31,24,21,82,60,40,29.54,29.24,18,4,18,0.00
2013-10-29,41,37,31,37,29,23,91,70,61,29.49,29.19,13,4,13,0.03
2013-10-30,50,45,39,50,44,37,100,97,91,29.19,28.79,14,3,14,0.09
2013-10-31,50,43,40,50,42,38,100,96,90,28.79,28.52,18,5,18,0.02
2013-11-1,50,43,40,40,37,32,93,79,57,28.97,28.52,20,6,20,0.00
2013-11-2,48,41,33,36,32,28,86,69,47,29.20,28.96,20,4,20,0.00
2013-11-3,54,46,37,36,33,29,78,61,44,29.22,29.01,30,6,32,0.01
2013-11-4,49,46,38,44,38,35,92,74,58,29.25,28.96,22,4,22,0.17
2013-11-5,45,38,32,36,31,26,97,79,49,29.34,29.11,18,3,18,0.03
2013-11-6,33,32,32,32,32,31,97,97,96,29.12,29.11,11,8,11,0.00
2013-11-7,36,34,31,31,29,28,88,83,79,29.31,29.27,15,4,15,0.01
2013-11-8,45,40,27,39,32,26,94,73,56,29.27,28.71,18,6,18,0.00
2013-11-9,45,42,36,39,36,28,84,78,59,29.26,28.73,20,9,20,0.00
2013-11-10,40,38,35,32,29,26,74,70,67,29.41,29.20,16,5,16,0.00
2013-11-11,37,31,17,32,23,11,80,70,55,29.73,29.22,17,10,17,0.00
2013-11-12,22,22,22,8,8,8,52,52,52,29.78,29.78,1,1,1,0.00
2013-11-14,52,45,38,38,36,31,80,69,60,28.96,28.87,15,3,15,0.00
2013-11-15,57,44,34,41,36,31,90,73,49,28.97,28.76,12,2,12,0.00
2013-11-16,50,46,42,48,43,35,97,90,73,28.77,28.37,16,3,16,0.10
2013-11-17,46,40,32,44,36,24,96,84,74,28.92,28.43,30,9,30,0.01
2013-11-18,34,30,26,26,23,21,79,70,59,29.34,28.91,30,7,30,0.00
2013-11-19,46,36,24,32,27,21,85,68,51,29.34,29.03,23,5,23,0.00
2013-11-20,44,41,37,35,31,28,92,67,52,29.14,29.00,18,4,18,0.00
2013-11-21,38,31,24,38,28,18,96,87,69,29.57,29.14,23,7,23,0.00
2013-11-22,34,23,13,18,12,4,80,62,34,29.67,29.52,26,7,26,0.00
2013-11-23,17,12,7,8,4,0,80,65,43,29.87,29.67,19,6,19,0.00
2013-11-24,32,21,10,16,10,4,80,61,47,29.75,29.06,21,3,24,0.00
2013-11-25,38,33,28,29,24,16,78,67,58,29.17,28.98,28,8,28,0.00
2013-11-26,30,20,14,21,10,4,70,58,48,29.43,29.15,30,9,30,0.00
2013-11-27,25,18,10,14,10,4,82,65,52,29.43,29.14,15,3,15,0.00
2013-11-28,26,23,17,16,13,11,74,64,55,29.56,29.13,20,4,20,0.00
2013-11-29,33,25,16,23,17,11,80,70,55,29.57,29.22,16,3,16,0.00
2013-11-30,39,33,28,28,25,21,82,72,62,29.25,29.11,12,3,13,0.00
2013-12-1,34,29,22,26,24,18,92,79,69,29.27,29.00,10,3,10,0.00
2013-12-2,36,33,30,33,29,26,96,86,80,29.01,28.69,17,5,17,0.03
2013-12-3,36,34,31,35,34,29,99,97,95,28.89,28.69,14,4,14,0.07
2013-12-4,31,30,28,31,29,28,98,97,96,28.88,28.76,15,5,15,0.00
2013-12-5,8,8,8,0,0,0,72,72,72,29.16,29.16,7,7,7,0.00